Time;durP1;ratioP1;P1;durP2;ratioP2;P2;SDS_P1;SDS_P2;PMS_P1;PMS_P2;Temp;Humidity;BMP_temperature;BMP_pressure;BME280_temperature;BME280_humidity;BME280_pressure;Samples;Min_cycle;Max_cycle;Signal;HPM_P1;HPM_P2
2022/11/25 00:00:49;;;;;;;4.57;3.00;;;7.40;99.90;;;;;;5003843;28;20033;-77
2022/11/25 00:03:15;;;;;;;15.95;3.85;;;7.40;99.90;;;;;;5004575;28;20037;-79
2022/11/25 00:05:41;;;;;;;11.10;4.10;;;7.40;99.90;;;;;;5003966;28;20408;-81
2022/11/25 00:08:06;;;;;;;11.82;3.97;;;7.40;99.90;;;;;;5003472;28;20136;-79
2022/11/25 00:10:32;;;;;;;11.60;4.57;;;7.40;99.90;;;;;;5003536;28;20049;-81
2022/11/25 00:12:58;;;;;;;13.95;2.60;;;7.40;99.90;;;;;;5011305;28;20580;-80
2022/11/25 00:15:23;;;;;;;6.30;3.20;;;7.40;99.90;;;;;;5023533;28;20060;-78
2022/11/25 00:17:49;;;;;;;8.98;3.70;;;7.40;99.90;;;;;;5023263;28;20373;-78
2022/11/25 00:20:15;;;;;;;12.07;2.90;;;7.40;99.90;;;;;;5023869;28;20071;-79
2022/11/25 00:22:40;;;;;;;7.43;2.65;;;7.40;99.90;;;;;;5008979;28;20050;-80
2022/11/25 00:25:06;;;;;;;6.80;4.03;;;7.40;99.90;;;;;;5001853;28;20532;-80
2022/11/25 00:27:31;;;;;;;7.88;3.67;;;7.40;99.90;;;;;;5002830;28;20136;-81
2022/11/25 00:29:57;;;;;;;7.95;3.08;;;7.40;99.90;;;;;;5003355;28;20056;-79
2022/11/25 00:32:23;;;;;;;12.10;4.72;;;7.40;99.90;;;;;;5003531;28;20089;-80
2022/11/25 00:34:48;;;;;;;6.78;2.85;;;7.40;99.90;;;;;;5017036;28;20095;-78
2022/11/25 00:37:14;;;;;;;7.95;3.95;;;7.40;99.90;;;;;;5023852;28;20527;-77
2022/11/25 00:39:39;;;;;;;4.20;3.20;;;7.40;99.90;;;;;;5023101;28;20047;-81
2022/11/25 00:44:49;;;;;;;6.60;3.92;;;7.40;99.90;;;;;;5022916;28;20115;-81
2022/11/25 00:47:19;;;;;;;7.75;3.58;;;7.40;99.90;;;;;;5025154;28;20041;-80
2022/11/25 00:49:48;;;;;;;7.55;3.17;;;7.40;99.90;;;;;;5025957;28;20099;-80
2022/11/25 00:52:20;;;;;;;5.40;2.47;;;7.40;99.90;;;;;;5027602;28;20042;-80
2022/11/25 00:54:46;;;;;;;6.25;3.45;;;7.40;99.90;;;;;;5010116;28;20484;-80
2022/11/25 00:57:13;;;;;;;6.25;3.42;;;7.50;99.90;;;;;;5006352;28;20102;-81
2022/11/25 00:59:39;;;;;;;9.00;4.57;;;7.50;99.90;;;;;;5007591;28;20050;-80
2022/11/25 01:02:04;;;;;;;6.07;4.22;;;7.50;99.90;;;;;;5006553;28;20514;-81
2022/11/25 01:04:30;;;;;;;8.55;3.50;;;7.50;99.90;;;;;;5007473;28;20036;-79
2022/11/25 01:06:58;;;;;;;5.57;3.10;;;7.50;99.90;;;;;;5025112;28;20442;-80
2022/11/25 01:09:24;;;;;;;9.63;3.70;;;7.50;99.90;;;;;;5026703;28;20071;-81
2022/11/25 01:11:50;;;;;;;5.32;2.75;;;7.50;99.90;;;;;;5025610;28;20081;-78
2022/11/25 01:14:17;;;;;;;8.35;3.13;;;7.50;99.90;;;;;;5025869;28;20084;-79
2022/11/25 01:16:42;;;;;;;7.07;4.25;;;7.50;99.90;;;;;;5026944;28;20073;-78
2022/11/25 01:19:10;;;;;;;6.82;3.35;;;7.60;99.90;;;;;;5026598;28;20085;-79
2022/11/25 01:21:35;;;;;;;10.60;3.80;;;7.60;99.90;;;;;;5026460;28;20433;-80
2022/11/25 01:24:03;;;;;;;6.20;3.67;;;7.60;99.90;;;;;;5026145;28;20124;-81
2022/11/25 01:26:29;;;;;;;6.50;2.88;;;7.60;99.90;;;;;;5014726;28;20124;-82
2022/11/25 01:28:57;;;;;;;9.88;3.75;;;7.50;99.90;;;;;;5006634;28;20079;-81
2022/11/25 01:31:25;;;;;;;10.98;3.78;;;7.60;99.90;;;;;;5006760;28;20074;-82
2022/11/25 01:33:57;;;;;;;8.55;2.55;;;7.60;99.90;;;;;;5012652;28;20843;-81
2022/11/25 01:36:23;;;;;;;17.88;3.55;;;7.60;99.90;;;;;;5026138;28;20045;-77
2022/11/25 01:38:51;;;;;;;7.25;3.53;;;7.60;99.90;;;;;;5026220;28;20045;-78
2022/11/25 01:41:17;;;;;;;3.10;2.00;;;7.60;99.90;;;;;;5025752;28;20124;-81
2022/11/25 01:43:42;;;;;;;6.53;3.70;;;7.60;99.90;;;;;;5026272;28;20121;-79
2022/11/25 01:46:49;;;;;;;7.32;3.00;;;7.60;99.90;;;;;;5025787;28;20758;-81
2022/11/25 01:49:42;;;;;;;16.48;3.30;;;7.60;99.90;;;;;;5012955;28;20049;-81
2022/11/25 01:52:19;;;;;;;7.93;3.17;;;7.60;99.90;;;;;;5025307;28;20037;-80
2022/11/25 01:55:04;;;;;;;12.18;3.80;;;7.60;99.90;;;;;;5023560;28;20132;-81
2022/11/25 01:58:13;;;;;;;6.43;3.78;;;7.60;99.90;;;;;;5023363;28;20140;-82
2022/11/25 02:00:38;;;;;;;10.73;3.30;;;7.60;99.90;;;;;;5011116;28;20049;-82
2022/11/25 02:03:06;;;;;;;8.80;3.05;;;7.60;99.90;;;;;;5024446;28;20091;-80
2022/11/25 02:06:15;;;;;;;4.68;2.72;;;7.60;99.90;;;;;;5025322;28;20099;-81
2022/11/25 02:08:45;;;;;;;12.00;4.53;;;7.60;99.90;;;;;;5024072;28;20057;-82
2022/11/25 02:11:12;;;;;;;4.85;3.30;;;7.60;99.90;;;;;;5022882;28;20091;-82
2022/11/25 02:13:38;;;;;;;9.88;3.67;;;7.60;99.90;;;;;;5024239;28;20115;-80
2022/11/25 02:16:04;;;;;;;9.02;4.15;;;7.60;99.90;;;;;;5025128;28;20041;-81
2022/11/25 02:18:29;;;;;;;7.50;4.13;;;7.60;99.90;;;;;;5024475;28;20397;-82
2022/11/25 02:20:55;;;;;;;4.93;2.75;;;7.60;99.90;;;;;;5007006;28;20522;-82
2022/11/25 02:23:35;;;;;;;28.80;3.40;;;7.60;99.90;;;;;;5025292;28;20042;-80
2022/11/25 02:26:03;;;;;;;5.32;2.83;;;7.60;99.90;;;;;;5015640;28;20058;-79
2022/11/25 02:28:30;;;;;;;14.82;3.80;;;7.60;99.90;;;;;;5019348;28;20049;-81
2022/11/25 02:30:57;;;;;;;7.82;3.65;;;7.60;99.90;;;;;;5024817;28;20048;-81
2022/11/25 02:33:23;;;;;;;6.65;3.45;;;7.60;99.90;;;;;;5024255;28;20131;-81
2022/11/25 02:36:13;;;;;;;11.63;4.55;;;7.60;99.90;;;;;;5023735;28;20399;-80
2022/11/25 02:38:53;;;;;;;4.90;2.90;;;7.60;99.90;;;;;;5025346;28;20045;-80
2022/11/25 02:41:24;;;;;;;8.55;3.75;;;7.60;99.90;;;;;;5022817;28;20057;-78
2022/11/25 02:43:50;;;;;;;13.32;3.78;;;7.60;99.90;;;;;;5023862;28;20045;-80
2022/11/25 02:46:18;;;;;;;5.72;2.55;;;7.60;99.90;;;;;;5007459;28;20049;-79
2022/11/25 02:48:44;;;;;;;6.97;3.47;;;7.60;99.90;;;;;;5025662;28;20053;-81
2022/11/25 02:51:13;;;;;;;10.77;4.47;;;7.60;99.90;;;;;;5024063;28;20046;-82
2022/11/25 02:53:39;;;;;;;7.95;3.47;;;7.60;99.90;;;;;;5023233;28;20053;-82
2022/11/25 02:56:05;;;;;;;14.45;5.75;;;7.60;99.90;;;;;;5022485;28;20049;-83
2022/11/25 02:58:31;;;;;;;8.48;4.07;;;7.60;99.90;;;;;;5019588;28;20125;-82
2022/11/25 03:00:56;;;;;;;9.32;3.78;;;7.60;99.90;;;;;;5004474;28;20132;-82
2022/11/25 03:03:22;;;;;;;7.38;3.40;;;7.60;99.90;;;;;;5005209;28;20053;-81
2022/11/25 03:05:48;;;;;;;9.57;5.45;;;7.60;99.90;;;;;;4987835;28;20546;-80
2022/11/25 03:08:13;;;;;;;9.60;3.90;;;7.60;99.90;;;;;;5004053;28;20187;-80
2022/11/25 03:10:39;;;;;;;10.73;4.05;;;7.70;99.90;;;;;;5003381;28;20512;-81
2022/11/25 03:13:06;;;;;;;10.73;4.95;;;7.70;99.90;;;;;;5004427;28;20050;-82
2022/11/25 03:15:33;;;;;;;10.15;4.10;;;7.70;99.90;;;;;;5004051;28;20412;-83
2022/11/25 03:17:58;;;;;;;6.32;2.92;;;7.70;99.90;;;;;;5002811;28;20087;-82
2022/11/25 03:20:24;;;;;;;12.35;4.75;;;7.70;99.90;;;;;;5004557;28;20109;-78
2022/11/25 03:22:50;;;;;;;10.70;4.13;;;7.70;99.90;;;;;;5003964;28;20048;-82
2022/11/25 03:25:16;;;;;;;5.20;3.13;;;7.70;99.90;;;;;;5004836;28;20488;-80
2022/11/25 03:27:42;;;;;;;16.10;5.40;;;7.70;99.90;;;;;;5002545;28;20042;-80
2022/11/25 03:30:11;;;;;;;9.00;3.00;;;7.70;99.90;;;;;;5003123;28;20403;-80
2022/11/25 03:32:37;;;;;;;9.43;3.60;;;7.70;99.90;;;;;;5003321;28;20441;-80
2022/11/25 03:35:03;;;;;;;18.90;5.55;;;7.70;99.90;;;;;;5002659;28;20137;-82
2022/11/25 03:37:29;;;;;;;12.40;3.45;;;7.80;99.90;;;;;;5002797;28;20042;-83
2022/11/25 03:39:54;;;;;;;7.70;3.40;;;7.80;99.90;;;;;;5002905;28;20068;-83
2022/11/25 03:42:20;;;;;;;6.78;3.50;;;7.80;99.90;;;;;;5003284;28;20038;-83
2022/11/25 03:44:46;;;;;;;8.82;4.43;;;7.80;99.90;;;;;;5003377;28;20052;-82
2022/11/25 03:47:11;;;;;;;8.50;4.57;;;7.80;99.90;;;;;;5002475;28;20050;-81
2022/11/25 03:49:37;;;;;;;11.23;4.85;;;7.80;99.90;;;;;;5004147;28;20045;-79
2022/11/25 03:52:02;;;;;;;8.45;4.30;;;7.80;99.90;;;;;;5020603;28;20076;-83
2022/11/25 03:54:28;;;;;;;4.72;3.88;;;7.80;99.90;;;;;;5023663;28;20072;-83
2022/11/25 03:56:54;;;;;;;5.30;2.90;;;7.80;99.90;;;;;;5022544;28;20090;-82
2022/11/25 03:59:19;;;;;;;9.90;3.88;;;7.80;99.90;;;;;;5023571;28;20081;-83
2022/11/25 04:01:45;;;;;;;8.77;4.20;;;7.80;99.90;;;;;;5022512;28;20106;-83
2022/11/25 04:04:10;;;;;;;8.95;5.25;;;7.80;99.90;;;;;;5023157;28;20063;-80
2022/11/25 04:06:38;;;;;;;7.32;3.72;;;7.80;99.90;;;;;;5024023;28;20033;-81
2022/11/25 04:09:05;;;;;;;7.65;3.90;;;7.80;99.90;;;;;;5023267;28;20753;-82
2022/11/25 04:12:45;;;;;;;15.27;6.63;;;7.80;99.90;;;;;;5021100;28;20042;-79
2022/11/25 04:14:16;;;;;;;8.43;4.85;;;7.80;99.90;;;;;;5022309;28;20053;-80
2022/11/25 04:16:42;;;;;;;12.65;4.80;;;7.90;99.90;;;;;;5013711;28;20396;-82
2022/11/25 04:19:07;;;;;;;12.10;5.35;;;7.90;99.90;;;;;;5003880;28;20082;-82
2022/11/25 04:21:33;;;;;;;11.95;4.78;;;7.80;99.90;;;;;;5002198;28;20042;-82
2022/11/25 04:23:58;;;;;;;8.45;3.90;;;7.90;99.90;;;;;;5003242;28;20091;-83
2022/11/25 04:26:24;;;;;;;12.02;5.05;;;7.90;99.90;;;;;;5002812;28;20117;-82
2022/11/25 04:28:50;;;;;;;6.15;3.75;;;7.90;99.90;;;;;;5001695;28;20176;-79
2022/11/25 04:31:15;;;;;;;15.68;4.20;;;7.90;99.90;;;;;;5005064;28;20046;-81
2022/11/25 04:33:41;;;;;;;10.65;5.20;;;7.90;99.90;;;;;;5022004;28;20056;-82
2022/11/25 04:36:07;;;;;;;11.93;4.88;;;7.90;99.90;;;;;;5023179;28;20046;-82
2022/11/25 04:38:32;;;;;;;6.20;4.38;;;7.90;99.90;;;;;;5021711;28;20056;-83
2022/11/25 04:40:58;;;;;;;10.85;5.05;;;7.80;99.90;;;;;;5021746;28;20399;-80
2022/11/25 04:43:23;;;;;;;10.27;4.28;;;7.80;99.90;;;;;;5021677;28;20045;-80
2022/11/25 04:45:50;;;;;;;10.85;4.78;;;7.80;99.90;;;;;;5022113;28;20054;-78
2022/11/25 04:48:16;;;;;;;12.05;4.78;;;7.80;99.90;;;;;;5005493;28;20503;-78
2022/11/25 04:50:42;;;;;;;12.38;4.72;;;7.80;99.90;;;;;;5023362;28;20045;-77
2022/11/25 04:53:07;;;;;;;8.60;4.35;;;7.80;99.90;;;;;;5021469;28;20044;-79
2022/11/25 04:55:33;;;;;;;18.08;5.53;;;7.80;99.90;;;;;;5022066;28;20442;-80
2022/11/25 04:57:58;;;;;;;13.73;5.15;;;7.80;99.90;;;;;;5022757;28;20052;-80
2022/11/25 05:00:24;;;;;;;16.75;6.88;;;7.80;99.90;;;;;;5021727;28;20141;-78
2022/11/25 05:02:49;;;;;;;12.68;5.05;;;7.80;99.90;;;;;;5007105;28;20050;-81
2022/11/25 05:05:15;;;;;;;13.77;5.43;;;7.80;99.90;;;;;;5003863;28;20524;-77
2022/11/25 05:07:40;;;;;;;9.48;4.47;;;7.80;99.90;;;;;;5003280;28;20720;-78
2022/11/25 05:10:07;;;;;;;13.18;4.30;;;7.80;99.90;;;;;;5003133;28;20129;-79
2022/11/25 05:12:34;;;;;;;10.23;5.13;;;7.80;99.90;;;;;;5001004;28;20092;-80
2022/11/25 05:14:59;;;;;;;11.73;5.57;;;7.80;99.90;;;;;;5000546;28;20129;-81
2022/11/25 05:17:27;;;;;;;9.88;4.78;;;7.80;99.90;;;;;;5000722;28;20121;-81
2022/11/25 05:19:53;;;;;;;17.55;5.38;;;7.80;99.90;;;;;;5001742;28;20405;-80
2022/11/25 05:22:30;;;;;;;20.08;4.60;;;7.80;99.90;;;;;;5001110;28;20045;-78
2022/11/25 05:24:56;;;;;;;13.55;5.28;;;7.80;99.90;;;;;;5001994;28;20108;-80
2022/11/25 05:27:22;;;;;;;15.77;5.18;;;7.80;99.90;;;;;;4999988;28;20042;-82
2022/11/25 05:29:48;;;;;;;19.48;4.63;;;7.80;99.90;;;;;;5002218;28;20042;-82
2022/11/25 05:32:14;;;;;;;7.35;3.90;;;7.80;99.90;;;;;;5001221;28;20077;-83
2022/11/25 05:34:40;;;;;;;10.88;5.70;;;7.80;99.90;;;;;;5005293;28;20133;-83
2022/11/25 05:37:07;;;;;;;14.40;6.70;;;7.80;99.90;;;;;;5003864;28;20142;-78
2022/11/25 05:39:33;;;;;;;7.07;4.53;;;7.80;99.90;;;;;;5005225;28;20121;-78
2022/11/25 05:41:59;;;;;;;11.30;4.25;;;7.80;99.90;;;;;;5003938;28;20328;-81
2022/11/25 05:44:25;;;;;;;13.02;5.63;;;7.80;99.90;;;;;;5003631;28;20053;-78
2022/11/25 05:46:50;;;;;;;18.70;5.18;;;7.80;99.90;;;;;;5024935;28;20377;-80
2022/11/25 05:49:17;;;;;;;17.35;4.95;;;7.90;99.90;;;;;;5024246;28;20045;-82
2022/11/25 05:51:43;;;;;;;12.85;5.63;;;7.90;99.90;;;;;;5024925;28;20092;-82
2022/11/25 05:54:09;;;;;;;12.52;4.88;;;7.90;99.90;;;;;;5011994;28;20050;-83
2022/11/25 05:56:35;;;;;;;14.57;5.78;;;7.90;99.90;;;;;;5003661;28;20043;-78
2022/11/25 05:59:01;;;;;;;12.68;5.95;;;7.90;99.90;;;;;;5004473;28;20042;-84
2022/11/25 06:01:27;;;;;;;10.30;4.47;;;8.00;99.90;;;;;;5015836;28;20034;-78
2022/11/25 06:03:52;;;;;;;10.93;6.90;;;8.00;99.90;;;;;;5024346;28;20570;-78
2022/11/25 06:06:18;;;;;;;13.77;5.05;;;8.00;99.90;;;;;;5006981;28;20038;-79
2022/11/25 06:08:44;;;;;;;8.63;4.55;;;8.00;99.90;;;;;;5004383;28;20518;-81
2022/11/25 06:11:12;;;;;;;10.40;5.50;;;8.00;99.90;;;;;;4966439;28;1075907;-81
2022/11/25 06:13:39;;;;;;;13.85;5.25;;;8.00;99.90;;;;;;4986638;28;20054;-81
2022/11/25 06:16:18;;;;;;;10.35;4.50;;;8.00;99.90;;;;;;4984765;28;20054;-81
2022/11/25 06:18:44;;;;;;;10.45;5.68;;;8.00;99.90;;;;;;4975492;28;20041;-81
2022/11/25 06:21:11;;;;;;;15.40;6.03;;;8.00;99.90;;;;;;5012335;28;20091;-78
2022/11/25 06:23:37;;;;;;;8.27;4.95;;;8.10;99.90;;;;;;5015983;28;20079;-79
2022/11/25 06:26:10;;;;;;;11.70;5.57;;;8.10;99.90;;;;;;5000007;28;20057;-77
2022/11/25 06:28:35;;;;;;;13.45;5.28;;;8.00;99.90;;;;;;5001416;28;20057;-81
2022/11/25 06:31:09;;;;;;;14.63;5.15;;;8.00;99.90;;;;;;5003176;28;20033;-78
2022/11/25 06:33:35;;;;;;;16.58;5.93;;;8.00;99.90;;;;;;5002363;28;20579;-80
2022/11/25 06:36:05;;;;;;;15.45;5.45;;;8.00;99.90;;;;;;5000116;28;20121;-83
2022/11/25 06:38:31;;;;;;;12.68;4.97;;;8.00;99.90;;;;;;5001395;28;20091;-83
2022/11/25 06:41:01;;;;;;;9.32;4.38;;;8.00;99.90;;;;;;5002670;28;20132;-82
2022/11/25 06:43:26;;;;;;;8.73;3.95;;;7.90;99.90;;;;;;4997792;28;20052;-84
2022/11/25 06:45:52;;;;;;;30.70;6.40;;;7.90;99.90;;;;;;5003225;28;20034;-83
2022/11/25 06:48:18;;;;;;;8.00;3.25;;;7.90;99.90;;;;;;5000382;28;20068;-80
2022/11/25 06:50:43;;;;;;;7.97;5.13;;;7.90;99.90;;;;;;5003827;28;20508;-81
2022/11/25 06:53:09;;;;;;;8.48;4.70;;;7.90;99.90;;;;;;5002979;28;20227;-83
2022/11/25 06:55:34;;;;;;;11.43;5.10;;;7.80;99.90;;;;;;5005177;28;20038;-84
2022/11/25 06:58:00;;;;;;;18.23;4.68;;;7.80;99.90;;;;;;5004628;28;20123;-90
2022/11/25 07:00:25;;;;;;;15.73;4.30;;;7.80;99.90;;;;;;4987244;28;20129;-90
2022/11/25 07:02:51;;;;;;;11.68;4.30;;;7.80;99.90;;;;;;5001697;28;20338;-81
2022/11/25 07:05:16;;;;;;;14.70;4.55;;;7.70;99.90;;;;;;4986752;28;20321;-81
2022/11/25 07:07:42;;;;;;;8.77;4.03;;;7.70;99.90;;;;;;5003128;28;20139;-82
2022/11/25 07:10:08;;;;;;;9.35;4.72;;;7.70;99.90;;;;;;5001847;28;20037;-87
2022/11/25 07:12:34;;;;;;;6.78;3.78;;;7.70;99.90;;;;;;4986185;28;20132;-90
2022/11/25 07:14:59;;;;;;;7.05;3.88;;;7.70;99.90;;;;;;5003638;28;20207;-88
2022/11/25 07:17:25;;;;;;;7.28;3.60;;;7.70;99.90;;;;;;5002208;28;20053;-88
2022/11/25 07:19:50;;;;;;;9.23;3.95;;;7.70;99.90;;;;;;5002017;28;20053;-83
2022/11/25 07:22:16;;;;;;;8.93;4.35;;;7.70;99.90;;;;;;5002210;28;20043;-84
2022/11/25 07:24:41;;;;;;;8.70;3.80;;;7.60;99.90;;;;;;5002177;28;20045;-85
2022/11/25 07:27:07;;;;;;;9.00;3.70;;;7.60;99.90;;;;;;5005219;28;20041;-80
2022/11/25 07:29:34;;;;;;;9.65;5.07;;;7.60;99.90;;;;;;4985522;28;20121;-86
2022/11/25 07:32:01;;;;;;;10.13;4.53;;;7.60;99.90;;;;;;5001957;28;20036;-82
2022/11/25 07:34:26;;;;;;;8.57;3.85;;;7.50;99.90;;;;;;5001605;28;20405;-80
2022/11/25 07:36:52;;;;;;;6.75;3.55;;;7.50;99.90;;;;;;5003539;28;20034;-87
2022/11/25 07:39:21;;;;;;;9.38;4.28;;;7.50;99.90;;;;;;5003599;28;20297;-87
2022/11/25 07:41:52;;;;;;;14.07;4.65;;;7.50;99.90;;;;;;5002220;28;20050;-92
2022/11/25 07:44:18;;;;;;;8.98;3.75;;;7.50;99.90;;;;;;5002458;28;20068;-92
2022/11/25 07:46:47;;;;;;;7.35;3.95;;;7.50;99.90;;;;;;5003352;28;20073;-90
2022/11/25 07:49:15;;;;;;;10.05;3.75;;;7.40;99.90;;;;;;5003293;28;20038;-92
2022/11/25 07:51:46;;;;;;;8.68;4.95;;;7.40;99.90;;;;;;5003342;28;20070;-90
2022/11/25 07:54:12;;;;;;;11.05;4.70;;;7.40;99.90;;;;;;5003360;28;20042;-92
2022/11/25 07:56:39;;;;;;;6.60;4.28;;;7.40;99.90;;;;;;5002337;28;20038;-90
2022/11/25 07:59:06;;;;;;;6.40;3.85;;;7.40;99.90;;;;;;5003190;28;20050;-85
2022/11/25 08:01:32;;;;;;;8.02;4.15;;;7.40;99.90;;;;;;5002331;28;20404;-91
2022/11/25 08:03:57;;;;;;;6.30;5.13;;;7.40;99.90;;;;;;5002973;28;20104;-89
2022/11/25 08:06:26;;;;;;;7.07;5.32;;;7.40;99.90;;;;;;5001804;28;20110;-86
2022/11/25 08:08:54;;;;;;;11.00;4.75;;;7.40;99.90;;;;;;5002090;28;20072;-85
2022/11/25 08:11:22;;;;;;;10.18;4.10;;;7.40;99.90;;;;;;5002009;28;20377;-88
2022/11/25 08:13:48;;;;;;;9.75;3.40;;;7.40;99.90;;;;;;5002797;28;20472;-89
2022/11/25 08:16:16;;;;;;;10.48;4.47;;;7.40;99.90;;;;;;5002245;28;20053;-83
2022/11/25 08:18:42;;;;;;;6.88;3.90;;;7.40;99.90;;;;;;5001942;28;20098;-86
2022/11/25 08:21:10;;;;;;;8.63;5.20;;;7.40;99.90;;;;;;5002253;28;20746;-81
2022/11/25 08:23:37;;;;;;;8.40;4.93;;;7.40;99.90;;;;;;5002723;28;20100;-82
2022/11/25 08:26:09;;;;;;;7.63;4.03;;;7.40;99.90;;;;;;5001778;28;20052;-82
2022/11/25 08:28:35;;;;;;;7.55;4.20;;;7.40;99.90;;;;;;5001087;28;20145;-85
2022/11/25 08:31:10;;;;;;;10.77;4.47;;;7.40;99.90;;;;;;5000070;28;20061;-81
2022/11/25 08:33:36;;;;;;;12.07;5.43;;;7.40;99.90;;;;;;5001590;28;20104;-88
2022/11/25 08:36:02;;;;;;;11.15;3.97;;;7.50;99.90;;;;;;5001453;28;20329;-91
2022/11/25 08:38:28;;;;;;;6.82;4.05;;;7.40;99.90;;;;;;5002741;28;20120;-89
2022/11/25 08:40:53;;;;;;;7.28;3.88;;;7.50;99.90;;;;;;5000332;28;20128;-83
2022/11/25 08:43:20;;;;;;;5.57;3.67;;;7.50;99.90;;;;;;5001720;28;20106;-77
2022/11/25 08:45:49;;;;;;;10.63;4.45;;;7.50;99.90;;;;;;5001798;28;20099;-83
2022/11/25 08:48:16;;;;;;;8.35;4.32;;;7.50;99.90;;;;;;5002016;28;20046;-84
2022/11/25 08:50:46;;;;;;;13.77;5.72;;;7.50;99.90;;;;;;5002998;28;20074;-83
2022/11/25 08:53:13;;;;;;;14.55;5.45;;;7.50;99.90;;;;;;5002500;28;20396;-82
2022/11/25 08:55:39;;;;;;;12.00;4.82;;;7.60;99.90;;;;;;5001801;28;20050;-83
2022/11/25 08:58:08;;;;;;;10.65;5.57;;;7.50;99.90;;;;;;5001515;28;20077;-84
2022/11/25 09:00:35;;;;;;;5.95;4.43;;;7.60;99.90;;;;;;5002970;28;20057;-86
2022/11/25 09:03:00;;;;;;;16.88;4.28;;;7.60;99.90;;;;;;5002568;28;20072;-83
2022/11/25 09:05:26;;;;;;;7.03;4.95;;;7.60;99.90;;;;;;5001865;28;20120;-82
2022/11/25 09:07:51;;;;;;;8.90;4.82;;;7.60;99.90;;;;;;5003534;28;20042;-92
2022/11/25 09:10:17;;;;;;;8.38;3.90;;;7.70;99.90;;;;;;5005852;28;20445;-88
2022/11/25 09:12:43;;;;;;;6.45;4.53;;;7.70;99.90;;;;;;5005548;28;20440;-89
2022/11/25 09:15:09;;;;;;;13.05;4.32;;;7.70;99.90;;;;;;5005014;28;20085;-88
2022/11/25 09:17:36;;;;;;;9.77;4.18;;;7.70;99.90;;;;;;5005953;28;20354;-85
2022/11/25 09:20:05;;;;;;;8.70;5.57;;;7.70;99.90;;;;;;5007972;28;20056;-85
2022/11/25 09:22:31;;;;;;;7.97;4.25;;;7.70;99.90;;;;;;5005141;28;20057;-83
2022/11/25 09:24:57;;;;;;;9.75;4.13;;;7.70;99.90;;;;;;5004747;28;20042;-83
2022/11/25 09:27:22;;;;;;;9.70;4.85;;;7.80;99.90;;;;;;5005346;28;20058;-86
2022/11/25 09:29:48;;;;;;;17.85;4.90;;;7.80;99.90;;;;;;5007559;28;20117;-91
2022/11/25 09:32:13;;;;;;;13.18;4.85;;;7.80;99.90;;;;;;4973261;28;20416;-86
2022/11/25 09:34:39;;;;;;;4.95;3.20;;;7.90;99.90;;;;;;5006272;28;20046;-91
2022/11/25 09:37:05;;;;;;;8.60;3.35;;;7.90;99.90;;;;;;5004642;28;20041;-92
2022/11/25 09:39:31;;;;;;;9.52;4.20;;;7.90;99.90;;;;;;5006077;28;20487;-83
2022/11/25 09:48:40;;;;;;;10.65;4.55;;;7.90;99.90;;;;;;5006251;28;20503;-91
2022/11/25 09:51:19;;;;;;;10.35;4.15;;;8.00;99.90;;;;;;5006112;28;20042;-80
2022/11/25 09:54:00;;;;;;;9.05;4.10;;;8.00;99.90;;;;;;5004735;28;20539;-85
2022/11/25 09:56:33;;;;;;;8.63;3.88;;;8.00;99.90;;;;;;5003569;28;20092;-82
2022/11/25 09:59:01;;;;;;;;;;;8.10;99.90;;;;;;5005264;28;20042;-90
2022/11/25 10:01:30;;;;;;;5.25;3.67;;;8.20;99.90;;;;;;5003684;28;20102;-89
2022/11/25 10:04:02;;;;;;;7.63;3.40;;;8.20;99.90;;;;;;5005319;28;20431;-89
2022/11/25 10:06:34;;;;;;;10.18;4.40;;;8.30;99.90;;;;;;5005630;28;20412;-92
2022/11/25 10:09:10;;;;;;;13.40;6.30;;;8.30;99.90;;;;;;5005074;28;20057;-84
2022/11/25 10:11:56;;;;;;;8.48;3.97;;;8.30;99.90;;;;;;4986441;28;20379;-91
2022/11/25 10:14:54;;;;;;;7.60;3.50;;;8.30;99.90;;;;;;5005916;28;20053;-90
2022/11/25 10:17:30;;;;;;;6.25;4.22;;;8.30;99.90;;;;;;4970169;28;20046;-83
2022/11/25 10:19:58;;;;;;;4.65;3.95;;;8.30;99.90;;;;;;5004954;28;20065;-87
2022/11/25 10:22:32;;;;;;;7.72;4.30;;;8.40;99.90;;;;;;5005059;28;20129;-81
2022/11/25 10:25:12;;;;;;;9.57;3.80;;;8.40;99.90;;;;;;5003331;28;20638;-83
2022/11/25 10:27:44;;;;;;;8.73;3.70;;;8.40;99.90;;;;;;4984140;28;20153;-83
2022/11/25 10:30:40;;;;;;;16.83;4.97;;;8.50;99.90;;;;;;4985407;28;20038;-82
2022/11/25 10:33:14;;;;;;;4.60;3.22;;;8.50;99.90;;;;;;4984088;28;20143;-85
2022/11/25 10:35:45;;;;;;;6.30;3.45;;;8.50;99.90;;;;;;4984116;28;20142;-79
2022/11/25 10:38:18;;;;;;;6.47;4.35;;;8.50;99.90;;;;;;4983666;28;20042;-91
2022/11/25 10:40:47;;;;;;;7.72;4.63;;;8.60;99.90;;;;;;4983777;28;20061;-86
2022/11/25 10:43:13;;;;;;;5.65;2.83;;;8.50;99.90;;;;;;4984877;28;20121;-87
2022/11/25 10:46:01;;;;;;;7.53;4.40;;;8.60;99.90;;;;;;4985521;28;20046;-78
2022/11/25 10:48:37;;;;;;;10.27;3.42;;;8.60;99.90;;;;;;4984116;28;20061;-84
2022/11/25 10:51:25;;;;;;;6.45;3.63;;;8.70;99.90;;;;;;4983684;28;20651;-90
2022/11/25 10:54:10;;;;;;;7.03;3.40;;;8.70;99.90;;;;;;4985042;28;20466;-88
2022/11/25 10:56:55;;;;;;;12.25;2.78;;;8.70;99.90;;;;;;4984130;28;20055;-92
2022/11/25 10:59:33;;;;;;;6.93;3.45;;;8.80;99.90;;;;;;4985556;28;20420;-91
2022/11/25 11:02:23;;;;;;;10.30;5.72;;;8.80;99.90;;;;;;4984688;28;20042;-92
2022/11/25 11:05:07;;;;;;;19.20;3.28;;;8.80;99.90;;;;;;4983092;28;20046;-87
2022/11/25 11:07:43;;;;;;;6.97;3.30;;;8.80;99.90;;;;;;4984765;28;20053;-90
2022/11/25 11:10:19;;;;;;;3.95;3.33;;;8.80;99.90;;;;;;4983928;28;20132;-86
2022/11/25 11:12:56;;;;;;;8.38;3.97;;;8.80;99.90;;;;;;4967726;28;20050;-86
2022/11/25 11:15:23;;;;;;;10.23;3.55;;;8.80;99.90;;;;;;4983397;28;20104;-85
2022/11/25 11:17:49;;;;;;;9.63;5.18;;;8.90;99.90;;;;;;4984429;28;20054;-83
2022/11/25 11:20:23;;;;;;;9.27;2.88;;;8.90;99.90;;;;;;4985233;28;20052;-85
2022/11/25 11:23:01;;;;;;;3.35;2.50;;;9.00;99.90;;;;;;4983385;28;20055;-77
2022/11/25 11:25:29;;;;;;;6.35;2.85;;;9.00;99.90;;;;;;4986005;28;20044;-84
2022/11/25 11:27:56;;;;;;;18.52;4.15;;;9.10;99.90;;;;;;5002955;28;20390;-85
2022/11/25 11:30:25;;;;;;;7.32;2.78;;;9.10;99.90;;;;;;4986373;28;20057;-85
2022/11/25 11:33:31;;;;;;;15.23;3.63;;;9.10;99.90;;;;;;5003808;28;20045;-84
2022/11/25 11:36:13;;;;;;;8.85;3.72;;;9.20;99.90;;;;;;5001678;28;20681;-93
2022/11/25 11:38:50;;;;;;;6.88;3.60;;;9.20;99.90;;;;;;5003863;28;20050;-87
2022/11/25 11:41:29;;;;;;;7.03;2.72;;;9.20;99.90;;;;;;5003820;28;20127;-84
2022/11/25 11:44:17;;;;;;;6.95;3.00;;;9.20;99.90;;;;;;5002170;28;20038;-90
2022/11/25 11:46:51;;;;;;;7.05;3.15;;;9.20;99.90;;;;;;5004149;28;20042;-89
2022/11/25 11:49:45;;;;;;;11.48;3.92;;;9.30;99.90;;;;;;5002852;28;20052;-84
2022/11/25 11:52:22;;;;;;;11.93;4.45;;;9.30;99.90;;;;;;5001966;28;20120;-87
2022/11/25 11:55:30;;;;;;;9.45;4.22;;;9.40;99.90;;;;;;5001912;28;20054;-88
2022/11/25 11:58:04;;;;;;;5.75;2.42;;;9.40;99.90;;;;;;5001462;28;20534;-89
2022/11/25 12:00:42;;;;;;;7.50;3.13;;;9.50;99.90;;;;;;5003925;28;20049;-84
2022/11/25 12:03:19;;;;;;;14.98;5.45;;;9.50;99.90;;;;;;5002870;28;20161;-88
2022/11/25 12:05:46;;;;;;;14.07;3.50;;;9.60;99.90;;;;;;4986668;28;20226;-88
2022/11/25 12:08:21;;;;;;;4.50;2.40;;;9.60;99.90;;;;;;5003118;28;20172;-88
2022/11/25 12:10:52;;;;;;;9.05;3.20;;;9.60;99.90;;;;;;5001564;28;20057;-90
2022/11/25 12:13:31;;;;;;;6.70;2.80;;;9.70;99.90;;;;;;5003714;28;20050;-87
2022/11/25 12:16:09;;;;;;;7.65;3.92;;;9.70;99.90;;;;;;5002066;28;20046;-90
2022/11/25 12:18:49;;;;;;;14.75;4.05;;;9.70;99.90;;;;;;5001787;28;20042;-85
2022/11/25 12:21:47;;;;;;;8.13;2.42;;;9.70;99.90;;;;;;5002586;28;20502;-81
2022/11/25 12:24:26;;;;;;;6.93;2.97;;;9.70;99.90;;;;;;5001026;28;20053;-84
2022/11/25 12:27:10;;;;;;;8.02;2.78;;;9.70;99.90;;;;;;5001711;28;20073;-79
2022/11/25 12:29:51;;;;;;;9.57;2.85;;;9.70;99.90;;;;;;5002022;28;20046;-90
2022/11/25 12:32:25;;;;;;;10.80;3.67;;;9.70;99.90;;;;;;5002373;28;20045;-84
2022/11/25 12:35:05;;;;;;;6.65;2.45;;;9.80;99.90;;;;;;5001073;28;20045;-86
2022/11/25 12:37:37;;;;;;;15.48;3.85;;;9.80;99.90;;;;;;5001477;28;20049;-86
2022/11/25 12:40:40;;;;;;;7.03;3.60;;;9.90;99.90;;;;;;5000861;28;20074;-89
2022/11/25 12:43:20;;;;;;;5.50;4.20;;;9.90;99.90;;;;;;4985901;28;20093;-90
2022/11/25 12:45:54;;;;;;;13.50;3.17;;;9.90;99.90;;;;;;5001804;28;20061;-90
2022/11/25 12:48:20;;;;;;;11.13;4.60;;;10.00;99.90;;;;;;4985676;28;20057;-85
2022/11/25 12:50:52;;;;;;;15.27;4.90;;;10.00;99.90;;;;;;5002065;28;20046;-92
2022/11/25 12:53:32;;;;;;;5.78;2.92;;;10.00;99.90;;;;;;4986079;28;20038;-82
2022/11/25 12:56:00;;;;;;;7.78;3.10;;;9.90;99.90;;;;;;4984219;28;20129;-92
2022/11/25 12:58:48;;;;;;;9.55;3.15;;;10.00;99.90;;;;;;5001586;28;20500;-92
2022/11/25 13:01:30;;;;;;;11.77;3.95;;;10.00;99.90;;;;;;5003077;28;20053;-86
2022/11/25 13:04:08;;;;;;;4.15;2.13;;;10.00;99.90;;;;;;5001203;28;20077;-91
2022/11/25 13:07:00;;;;;;;12.90;3.08;;;10.00;99.90;;;;;;5001495;28;20602;-92
2022/11/25 13:09:59;;;;;;;10.13;3.92;;;10.00;99.90;;;;;;5001082;28;20709;-87
2022/11/25 13:12:54;;;;;;;9.52;2.83;;;9.90;99.90;;;;;;5001645;28;20054;-93
2022/11/25 13:15:28;;;;;;;8.50;2.92;;;10.00;99.90;;;;;;4984199;28;20050;-88
2022/11/25 13:17:59;;;;;;;8.13;2.97;;;10.00;99.90;;;;;;4985131;28;20052;-79